createdAt,value
2023-03-21T00:00:42.971Z,99845.38
2023-03-21T00:03:09.467Z,99849.69
2023-03-21T00:05:42.992Z,99845.38
2023-03-21T00:08:09.656Z,99851.41
2023-03-21T00:10:42.085Z,99845.19
2023-03-21T00:13:15.322Z,99840.75
2023-03-21T00:16:04.233Z,99843.31
2023-03-21T00:18:32.009Z,99841.44
2023-03-21T00:21:35.572Z,99839.56
2023-03-21T00:23:49.640Z,99839.47
2023-03-21T00:26:17.203Z,99832.44
2023-03-21T00:28:44.020Z,99841.09
2023-03-21T00:31:11.093Z,99832.22
2023-03-21T00:33:39.522Z,99838.28
2023-03-21T00:36:07.701Z,99831.13
2023-03-21T00:38:34.996Z,99831.91
2023-03-21T00:41:18.829Z,99837.09
2023-03-21T00:43:51.998Z,99823.69
2023-03-21T00:46:18.757Z,99814.88
2023-03-21T00:48:46.039Z,99813.84
2023-03-21T00:51:15.626Z,99819.03
2023-03-21T00:53:42.843Z,99816.19
2023-03-21T00:56:09.805Z,99806.50
2023-03-21T00:58:36.469Z,99797.56
2023-03-21T01:01:04.400Z,99800.22
2023-03-21T01:03:31.008Z,99800.03
2023-03-21T01:06:06.859Z,99797.31
2023-03-21T01:08:50.438Z,99802.59
2023-03-21T01:11:21.116Z,99794.59
2023-03-21T01:13:54.886Z,99796.19
2023-03-21T01:16:27.329Z,99795.25
2023-03-21T01:18:53.990Z,99786.38
2023-03-21T01:21:20.639Z,99786.38
2023-03-21T01:23:47.956Z,99782.81
2023-03-21T01:26:15.417Z,99776.69
2023-03-21T01:28:43.329Z,99788.94
2023-03-21T01:31:15.280Z,99776.69
2023-03-21T01:33:41.937Z,99781.03
2023-03-21T01:36:13.249Z,99778.41
2023-03-21T01:38:41.415Z,99778.47
2023-03-21T01:41:18.610Z,99774.06
2023-03-21T01:43:46.075Z,99785.34
2023-03-21T01:46:12.472Z,99770.41
2023-03-21T01:48:42.172Z,99770.47
2023-03-21T01:51:11.504Z,99759.84
2023-03-21T01:53:39.214Z,99766.81
2023-03-21T01:56:13.957Z,99763.44
2023-03-21T01:58:42.148Z,99758.03
2023-03-21T02:01:10.006Z,99764.09
2023-03-21T02:03:38.497Z,99764.94
2023-03-21T02:06:15.252Z,99759.84
2023-03-21T02:08:41.903Z,99754.28
2023-03-21T02:11:09.983Z,99754.28
2023-03-21T02:13:36.391Z,99743.75
2023-03-21T02:16:13.410Z,99754.28
2023-03-21T02:18:39.798Z,99749.78
2023-03-21T02:21:36.607Z,99751.75
2023-03-21T02:24:26.322Z,99747.41
2023-03-21T02:27:21.743Z,99742.13
2023-03-21T02:30:29.621Z,99738.59
2023-03-21T02:33:01.272Z,99736.59
2023-03-21T02:35:54.534Z,99735.81
2023-03-21T02:38:38.759Z,99730.56
2023-03-21T02:41:17.997Z,99731.41
2023-03-21T02:43:53.979Z,99734.06
2023-03-21T02:46:42.884Z,99733.31
2023-03-21T02:49:43.357Z,99739.22
2023-03-21T02:52:28.259Z,99730.56
2023-03-21T02:55:00.976Z,99729.50
2023-03-21T02:57:40.053Z,99732.16
2023-03-21T03:00:16.486Z,99729.50
2023-03-21T03:02:43.567Z,99730.38
2023-03-21T03:05:25.618Z,99725.41
2023-03-21T03:08:36.207Z,99721.91
2023-03-21T03:11:18.995Z,99718.22
2023-03-21T03:13:48.278Z,99721.50
2023-03-21T03:16:39.005Z,99713.06
2023-03-21T03:19:11.009Z,99721.91
2023-03-21T03:21:44.053Z,99712.41
2023-03-21T03:24:31.663Z,99713.13
2023-03-21T03:27:04.001Z,99719.19
2023-03-21T03:29:34.081Z,99714.09
2023-03-21T03:32:21.236Z,99711.72
2023-03-21T03:34:51.615Z,99715.03
2023-03-21T03:37:26.173Z,99716.00
2023-03-21T03:40:27.780Z,99713.53
2023-03-21T03:42:58.975Z,99706.38
2023-03-21T03:45:35.578Z,99714.47
2023-03-21T03:48:05.948Z,99711.72
2023-03-21T03:50:44.757Z,99706.84
2023-03-21T03:53:18.317Z,99698.84
2023-03-21T03:55:45.988Z,99704.31
2023-03-21T03:58:21.680Z,99698.38
2023-03-21T04:00:51.917Z,99695.91
2023-03-21T04:03:18.604Z,99690.84
2023-03-21T04:05:47.731Z,99690.94
2023-03-21T04:08:16.549Z,99693.75
2023-03-21T04:10:43.849Z,99694.81
2023-03-21T04:13:10.722Z,99690.56
2023-03-21T04:15:37.467Z,99691.59
2023-03-21T04:18:03.986Z,99692.59
2023-03-21T04:20:37.048Z,99690.09
2023-03-21T04:23:04.343Z,99687.63
2023-03-21T04:25:34.691Z,99684.22
2023-03-21T04:28:01.359Z,99683.41
2023-03-21T04:30:27.684Z,99686.13
2023-03-21T04:32:56.636Z,99683.56
2023-03-21T04:35:24.336Z,99680.84
2023-03-21T04:37:50.742Z,99675.59
2023-03-21T04:40:19.977Z,99676.53
2023-03-21T04:42:47.796Z,99677.28
2023-03-21T04:45:15.765Z,99677.28
2023-03-21T04:47:42.640Z,99667.59
2023-03-21T04:50:10.805Z,99668.44
2023-03-21T04:52:37.311Z,99670.16
2023-03-21T04:55:04.089Z,99674.47
2023-03-21T04:57:30.976Z,99673.53
2023-03-21T04:59:57.335Z,99667.44
2023-03-21T05:02:23.693Z,99669.09
2023-03-21T05:04:50.144Z,99671.75
2023-03-21T05:07:16.526Z,99670.97
2023-03-21T05:09:42.906Z,99666.56
2023-03-21T05:12:09.225Z,99661.38
2023-03-21T05:14:35.589Z,99664.97
2023-03-21T05:17:05.257Z,99658.75
2023-03-21T05:19:35.832Z,99659.69
2023-03-21T05:22:05.479Z,99656.28
2023-03-21T05:24:33.175Z,99656.13
2023-03-21T05:27:01.979Z,99651.72
2023-03-21T05:29:31.413Z,99653.47
2023-03-21T05:31:59.301Z,99654.44
2023-03-21T05:34:27.008Z,99648.22
2023-03-21T05:36:53.948Z,99647.25
2023-03-21T05:39:21.030Z,99646.44
2023-03-21T05:41:47.573Z,99649.06
2023-03-21T05:44:13.910Z,99648.22
2023-03-21T05:46:40.248Z,99648.13
2023-03-21T05:49:06.575Z,99652.53
2023-03-21T05:51:32.957Z,99651.78
2023-03-21T05:53:59.303Z,99646.53
2023-03-21T05:56:25.772Z,99658.00
2023-03-21T05:58:52.117Z,99651.97
2023-03-21T06:01:18.835Z,99653.75
2023-03-21T06:03:45.461Z,99653.88
2023-03-21T06:06:11.806Z,99655.56
2023-03-21T06:08:38.188Z,99657.31
2023-03-21T06:11:23.263Z,99659.22
2023-03-21T06:13:49.828Z,99655.47
2023-03-21T06:16:16.364Z,99661.56
2023-03-21T06:18:42.761Z,99664.00
2023-03-21T06:21:09.114Z,99659.59
2023-03-21T06:23:36.621Z,99658.75
2023-03-21T06:26:04.060Z,99665.63
2023-03-21T06:28:31.948Z,99665.53
2023-03-21T06:30:58.533Z,99659.41
2023-03-21T06:33:25.872Z,99670.63
2023-03-21T06:35:57.438Z,99665.44
2023-03-21T06:38:25.151Z,99664.41
2023-03-21T06:40:51.963Z,99661.69
2023-03-21T06:43:18.538Z,99659.69
2023-03-21T06:45:45.272Z,99670.06
2023-03-21T06:48:12.330Z,99670.88
2023-03-21T06:50:38.932Z,99666.47
2023-03-21T06:53:05.349Z,99669.88
2023-03-21T06:55:31.819Z,99671.47
2023-03-21T06:57:59.229Z,99667.03
2023-03-21T07:00:25.970Z,99669.66
2023-03-21T07:02:53.733Z,99667.78
2023-03-21T07:05:20.391Z,99669.56
2023-03-21T07:07:46.835Z,99668.63
2023-03-21T07:10:13.264Z,99664.22
2023-03-21T07:12:39.642Z,99673.06
2023-03-21T07:15:07.390Z,99664.31
2023-03-21T07:17:33.814Z,99673.06
2023-03-21T07:20:00.240Z,99662.53
2023-03-21T07:22:26.709Z,99673.06
2023-03-21T07:25:04.094Z,99670.53
2023-03-21T07:27:32.048Z,99670.59
2023-03-21T07:29:58.500Z,99677.66
2023-03-21T07:32:29.712Z,99673.34
2023-03-21T07:34:56.223Z,99671.75
2023-03-21T07:37:23.899Z,99670.06
2023-03-21T07:39:51.336Z,99673.41
2023-03-21T07:42:18.081Z,99675.13
2023-03-21T07:44:45.884Z,99678.69
2023-03-21T07:47:12.370Z,99678.59
2023-03-21T07:49:38.820Z,99674.19
2023-03-21T07:52:06.668Z,99682.94
2023-03-21T07:54:33.376Z,99678.50
2023-03-21T07:56:59.992Z,99677.66
2023-03-21T07:59:26.628Z,99682.09
2023-03-21T08:01:53.051Z,99675.97
2023-03-21T08:04:19.826Z,99677.78
2023-03-21T08:06:46.245Z,99682.09
2023-03-21T08:09:19.599Z,99677.94
2023-03-21T08:11:45.996Z,99673.41
2023-03-21T08:14:12.548Z,99682.19
2023-03-21T08:16:38.995Z,99677.88
2023-03-21T08:19:05.823Z,99674.28
2023-03-21T08:21:32.185Z,99672.50
2023-03-21T08:23:58.684Z,99678.59
2023-03-21T08:26:26.408Z,99679.38
2023-03-21T08:28:52.914Z,99680.28
2023-03-21T08:31:21.685Z,99681.16
2023-03-21T08:33:51.032Z,99680.19
2023-03-21T08:36:17.479Z,99680.19
2023-03-21T08:38:45.960Z,99677.56
2023-03-21T08:41:12.528Z,99685.47
2023-03-21T08:43:38.908Z,99683.69
2023-03-21T08:46:05.801Z,99684.66
2023-03-21T08:48:32.605Z,99680.19
2023-03-21T08:51:01.834Z,99681.06
2023-03-21T08:53:28.249Z,99673.91
2023-03-21T08:55:54.733Z,99673.81
2023-03-21T08:58:21.184Z,99675.41
2023-03-21T09:00:48.241Z,99664.75
2023-03-21T09:03:14.619Z,99665.53
2023-03-21T09:05:41.324Z,99667.97
2023-03-21T09:08:07.708Z,99661.56
2023-03-21T09:10:34.179Z,99662.31
2023-03-21T09:13:00.658Z,99658.66
2023-03-21T09:15:29.720Z,99653.28
2023-03-21T09:17:58.294Z,99667.09
2023-03-21T09:20:30.505Z,99658.06
2023-03-21T09:22:58.238Z,99669.25
2023-03-21T09:25:24.964Z,99669.06
2023-03-21T09:27:51.554Z,99662.84
2023-03-21T09:30:22.292Z,99661.91
2023-03-21T09:32:50.343Z,99664.44
2023-03-21T09:35:18.764Z,99654.75
2023-03-21T09:37:47.212Z,99652.97
2023-03-21T09:40:23.432Z,99658.34
2023-03-21T09:43:15.455Z,99659.38
2023-03-21T09:45:58.634Z,99648.75
2023-03-21T09:48:34.963Z,99653.88
2023-03-21T09:51:05.220Z,99645.88
2023-03-21T09:53:40.022Z,99647.59
2023-03-21T09:56:13.200Z,99650.13
2023-03-21T09:58:46.145Z,99643.78
2023-03-21T10:01:41.879Z,99642.97
2023-03-21T10:04:12.929Z,99643.50
2023-03-21T10:06:42.990Z,99645.09
2023-03-21T10:09:25.732Z,99641.63
2023-03-21T10:12:07.304Z,99645.75
2023-03-21T10:14:48.347Z,99652.81
2023-03-21T10:17:25.600Z,99646.59
2023-03-21T10:20:21.476Z,99649.25
2023-03-21T10:22:50.429Z,99649.88
2023-03-21T10:25:33.102Z,99643.00
2023-03-21T10:28:00.745Z,99634.03
2023-03-21T10:30:40.527Z,99635.94
2023-03-21T10:33:11.921Z,99633.31
2023-03-21T10:35:44.833Z,99635.94
2023-03-21T10:38:17.895Z,99636.91
2023-03-21T10:40:44.290Z,99629.81
2023-03-21T10:43:16.962Z,99637.53
2023-03-21T10:48:17.341Z,99623.72
2023-03-21T10:50:47.964Z,99625.50
2023-03-21T10:53:27.554Z,99630.03
2023-03-21T10:55:57.558Z,99624.63
2023-03-21T10:58:33.298Z,99630.78
2023-03-21T11:01:04.861Z,99623.63
2023-03-21T11:03:36.796Z,99613.06
2023-03-21T11:06:11.650Z,99618.22
2023-03-21T11:08:47.259Z,99616.44
2023-03-21T11:11:21.509Z,99604.00
2023-03-21T11:13:56.852Z,99604.00
2023-03-21T11:16:30.566Z,99612.66
2023-03-21T11:19:02.390Z,99604.66
2023-03-21T11:21:36.621Z,99606.44
2023-03-21T11:24:04.806Z,99603.59
2023-03-21T11:26:37.545Z,99600.00
2023-03-21T11:29:40.590Z,99598.31
2023-03-21T11:32:13.489Z,99584.97
2023-03-21T11:34:53.343Z,99602.28
2023-03-21T11:37:37.657Z,99591.50
2023-03-21T11:40:18.189Z,99585.09
2023-03-21T11:42:48.111Z,99582.25
2023-03-21T11:45:18.452Z,99582.16
2023-03-21T11:47:46.441Z,99578.47
2023-03-21T11:50:35.143Z,99574.13
2023-03-21T11:53:38.290Z,99579.31
2023-03-21T11:56:26.521Z,99565.78
2023-03-21T11:59:04.960Z,99564.84
2023-03-21T12:01:35.451Z,99560.00
2023-03-21T12:04:01.879Z,99567.59
2023-03-21T12:06:37.529Z,99566.56
2023-03-21T12:09:25.380Z,99561.19
2023-03-21T12:12:01.139Z,99550.31
2023-03-21T12:14:30.380Z,99552.94
2023-03-21T12:17:09.801Z,99556.63
2023-03-21T12:19:51.454Z,99546.91
2023-03-21T12:22:43.863Z,99542.59
2023-03-21T12:25:25.003Z,99541.44
2023-03-21T12:28:06.600Z,99534.47
2023-03-21T12:30:47.472Z,99536.06
2023-03-21T12:33:44.108Z,99528.22
2023-03-21T12:36:25.540Z,99518.41
2023-03-21T12:39:04.336Z,99515.84
2023-03-21T12:41:55.767Z,99518.50
2023-03-21T12:44:26.304Z,99519.06
2023-03-21T12:47:02.197Z,99519.97
2023-03-21T12:50:15.526Z,99514.81
2023-03-21T12:52:45.026Z,99510.78
2023-03-21T12:55:21.898Z,99515.25
2023-03-21T12:58:14.373Z,99515.25
2023-03-21T13:00:47.529Z,99503.50
2023-03-21T13:03:13.929Z,99499.69
2023-03-21T13:05:48.605Z,99490.72
2023-03-21T13:08:24.678Z,99484.03
2023-03-21T13:10:51.077Z,99479.91
2023-03-21T13:13:31.874Z,99493.53
2023-03-21T13:16:17.860Z,99484.53
2023-03-21T13:19:00.756Z,99482.41
2023-03-21T13:21:52.070Z,99477.41
2023-03-21T13:24:33.867Z,99474.78
2023-03-21T13:27:04.086Z,99466.63
2023-03-21T13:29:50.368Z,99454.25
2023-03-21T13:32:30.884Z,99458.47
2023-03-21T13:35:00.299Z,99446.00
2023-03-21T13:37:34.834Z,99447.66
2023-03-21T13:40:12.750Z,99439.63
2023-03-21T13:42:51.011Z,99436.03
2023-03-21T13:45:45.174Z,99440.25
2023-03-21T13:48:28.466Z,99433.06
2023-03-21T13:51:01.069Z,99439.81
2023-03-21T13:53:38.925Z,99444.97
2023-03-21T13:56:16.013Z,99443.16
2023-03-21T13:58:48.249Z,99429.22
2023-03-21T14:01:30.599Z,99437.28
2023-03-21T14:04:23.988Z,99433.66
2023-03-21T14:06:59.191Z,99434.53
2023-03-21T14:09:36.054Z,99424.91
2023-03-21T14:12:07.826Z,99425.63
2023-03-21T14:14:40.367Z,99424.78
2023-03-21T14:17:23.861Z,99407.84
2023-03-21T14:20:16.209Z,99417.59
2023-03-21T14:22:42.767Z,99413.53
2023-03-21T14:25:14.686Z,99403.06
2023-03-21T14:27:55.214Z,99405.72
2023-03-21T14:30:26.090Z,99404.53
2023-03-21T14:33:03.363Z,99401.03
2023-03-21T14:35:34.074Z,99406.03
2023-03-21T14:38:07.205Z,99392.66
2023-03-21T14:40:33.540Z,99385.34
2023-03-21T14:43:05.112Z,99389.47
2023-03-21T14:48:35.896Z,99388.38
2023-03-21T14:51:05.926Z,99369.00
2023-03-21T14:53:37.662Z,99374.31
2023-03-21T14:56:14.792Z,99376.22
2023-03-21T14:58:44.447Z,99376.59
2023-03-21T15:01:21.311Z,99370.25
2023-03-21T15:03:51.281Z,99370.00
2023-03-21T15:06:17.819Z,99375.78
2023-03-21T15:08:55.776Z,99374.81
2023-03-21T15:11:34.125Z,99367.59
2023-03-21T15:14:04.795Z,99365.56
2023-03-21T15:16:31.897Z,99372.31
2023-03-21T15:18:59.722Z,99351.25
2023-03-21T15:21:38.411Z,99362.06
2023-03-21T15:24:33.907Z,99355.97
2023-03-21T15:27:03.873Z,99356.56
2023-03-21T15:29:31.289Z,99351.97
2023-03-21T15:31:59.072Z,99351.84
2023-03-21T15:34:29.306Z,99348.38
2023-03-21T15:37:07.726Z,99349.09
2023-03-21T15:39:36.287Z,99344.41
2023-03-21T15:42:06.197Z,99316.16
2023-03-21T15:44:35.028Z,99321.09
2023-03-21T15:47:01.953Z,99321.69
2023-03-21T15:49:33.831Z,99319.75
2023-03-21T15:52:06.588Z,99320.09
2023-03-21T15:54:44.425Z,99314.22
2023-03-21T15:57:25.888Z,99320.94
2023-03-21T16:00:35.864Z,99321.81
2023-03-21T16:03:26.293Z,99329.38
2023-03-21T16:06:12.617Z,99323.38
2023-03-21T16:08:45.869Z,99325.78
2023-03-21T16:11:24.856Z,99330.94
2023-03-21T16:13:52.993Z,99335.88
2023-03-21T16:16:22.317Z,99332.00
2023-03-21T16:18:49.179Z,99324.53
2023-03-21T16:21:18.344Z,99325.00
2023-03-21T16:23:45.882Z,99325.34
2023-03-21T16:26:16.520Z,99323.31
2023-03-21T16:28:44.254Z,99330.06
2023-03-21T16:31:21.105Z,99332.69
2023-03-21T16:33:48.798Z,99332.31
2023-03-21T16:36:25.613Z,99337.72
2023-03-21T16:38:53.980Z,99331.50
2023-03-21T16:41:22.282Z,99327.25
2023-03-21T16:43:49.075Z,99335.59
2023-03-21T16:46:24.319Z,99337.78
2023-03-21T16:48:53.779Z,99337.16
2023-03-21T16:51:34.898Z,99334.66
2023-03-21T16:54:02.401Z,99335.63
2023-03-21T16:56:50.396Z,99324.34
2023-03-21T16:59:17.295Z,99340.91
2023-03-21T17:01:46.090Z,99328.41
2023-03-21T17:04:13.135Z,99325.03
2023-03-21T17:06:44.682Z,99325.53
2023-03-21T17:09:13.507Z,99340.81
2023-03-21T17:11:41.520Z,99327.69
2023-03-21T17:14:10.089Z,99336.84
2023-03-21T17:16:37.341Z,99343.91
2023-03-21T17:19:11.815Z,99343.44
2023-03-21T17:21:38.226Z,99340.78
2023-03-21T17:24:04.779Z,99339.22
2023-03-21T17:26:31.161Z,99346.56
2023-03-21T17:28:57.771Z,99347.66
2023-03-21T17:31:26.544Z,99348.72
2023-03-21T17:33:53.023Z,99353.28
2023-03-21T17:36:24.655Z,99353.50
2023-03-21T17:38:52.758Z,99352.69
2023-03-21T17:41:20.480Z,99353.63
2023-03-21T17:43:47.464Z,99362.41
2023-03-21T17:46:16.662Z,99357.34
2023-03-21T17:48:44.458Z,99360.84
2023-03-21T17:51:14.692Z,99360.84
2023-03-21T17:53:45.880Z,99353.88
2023-03-21T17:56:20.114Z,99354.09
2023-03-21T17:58:47.167Z,99350.50
2023-03-21T18:01:14.130Z,99347.84
2023-03-21T18:03:41.082Z,99363.84
2023-03-21T18:06:19.550Z,99362.28
2023-03-21T18:08:49.793Z,99365.66
2023-03-21T18:11:16.912Z,99357.72
2023-03-21T18:13:47.504Z,99355.19
2023-03-21T18:16:22.624Z,99354.59
2023-03-21T18:18:50.827Z,99350.97
2023-03-21T18:21:20.251Z,99353.50
2023-03-21T18:23:47.270Z,99349.91
2023-03-21T18:26:17.638Z,99346.66
2023-03-21T18:28:44.172Z,99349.31
2023-03-21T18:31:19.249Z,99348.56
2023-03-21T18:33:48.095Z,99350.34
2023-03-21T18:36:24.538Z,99356.72
2023-03-21T18:38:51.996Z,99360.22
2023-03-21T18:41:19.605Z,99363.91
2023-03-21T18:44:05.541Z,99363.16
2023-03-21T18:46:33.008Z,99364.97
2023-03-21T18:49:19.969Z,99359.81
2023-03-21T18:51:46.963Z,99361.72
2023-03-21T18:54:13.556Z,99354.75
2023-03-21T18:59:27.036Z,99350.53
2023-03-21T19:01:53.691Z,99340.91
2023-03-21T19:04:25.598Z,99356.91
2023-03-21T19:06:58.315Z,99349.19
2023-03-21T19:09:29.652Z,99351.13
2023-03-21T19:11:58.326Z,99343.41
2023-03-21T19:14:24.723Z,99358.56
2023-03-21T19:19:38.625Z,99344.00
2023-03-21T19:22:05.024Z,99349.59
2023-03-21T19:24:31.401Z,99347.94
2023-03-21T19:26:57.910Z,99353.22
2023-03-21T19:29:25.618Z,99354.19
2023-03-21T19:31:52.245Z,99353.22
2023-03-21T19:34:19.404Z,99347.06
2023-03-21T19:36:51.433Z,99350.56
2023-03-21T19:39:21.860Z,99343.50
2023-03-21T19:41:48.557Z,99352.25
2023-03-21T19:44:14.883Z,99353.22
2023-03-21T19:46:41.265Z,99353.22
2023-03-21T19:49:07.589Z,99347.94
2023-03-21T19:51:34.294Z,99354.91
2023-03-21T19:54:04.487Z,99341.06
2023-03-21T19:56:31.918Z,99340.22
2023-03-21T19:58:58.915Z,99337.69
2023-03-21T20:01:26.008Z,99339.50
2023-03-21T20:03:52.592Z,99338.88
2023-03-21T20:06:22.096Z,99339.00
2023-03-21T20:11:34.872Z,99320.13
2023-03-21T20:14:03.123Z,99315.88
2023-03-21T20:16:35.001Z,99318.88
2023-03-21T20:19:03.419Z,99308.66
2023-03-21T20:21:36.630Z,99313.44
2023-03-21T20:24:11.328Z,99312.19
2023-03-21T20:26:37.971Z,99322.25
2023-03-21T20:29:46.995Z,99313.94
2023-03-21T20:31:53.013Z,99310.91
2023-03-21T20:34:19.319Z,99314.72
2023-03-21T20:36:45.801Z,99314.22
2023-03-21T20:39:12.213Z,99321.63
2023-03-21T20:41:39.679Z,99313.06
2023-03-21T20:44:41.765Z,99323.09
2023-03-21T20:49:25.002Z,99316.47
2023-03-21T20:54:38.535Z,99316.06
2023-03-21T20:57:05.236Z,99326.94
2023-03-21T20:59:37.804Z,99323.81
2023-03-21T21:02:05.370Z,99320.38
2023-03-21T21:04:49.742Z,99321.44
2023-03-21T21:07:22.950Z,99323.56
2023-03-21T21:09:50.124Z,99315.84
2023-03-21T21:12:19.383Z,99320.41
2023-03-21T21:14:47.772Z,99316.19
2023-03-21T21:17:31.181Z,99320.81
2023-03-21T21:20:10.602Z,99322.84
2023-03-21T21:22:39.048Z,99329.16
2023-03-21T21:25:06.590Z,99316.19
2023-03-21T21:27:33.053Z,99317.13
2023-03-21T21:29:59.940Z,99320.84
2023-03-21T21:32:26.512Z,99320.84
2023-03-21T21:34:53.300Z,99315.56
2023-03-21T21:37:20.014Z,99316.28
2023-03-21T21:39:46.700Z,99304.81
2023-03-21T21:42:13.227Z,99308.19
2023-03-21T21:44:44.214Z,99312.28
2023-03-21T21:47:12.263Z,99306.81
2023-03-21T21:49:39.183Z,99299.63
2023-03-21T21:52:05.680Z,99300.38
2023-03-21T21:54:34.229Z,99301.09
2023-03-21T21:57:01.275Z,99299.31
2023-03-21T21:59:28.016Z,99286.94
2023-03-21T22:01:54.738Z,99294.84
2023-03-21T22:04:27.714Z,99293.19
2023-03-21T22:06:56.969Z,99286.22
2023-03-21T22:09:23.707Z,99286.00
2023-03-21T22:11:50.363Z,99288.88
2023-03-21T22:14:16.948Z,99285.59
2023-03-21T22:16:44.070Z,99277.81
2023-03-21T22:19:10.680Z,99285.81
2023-03-21T22:21:37.156Z,99280.75
2023-03-21T22:24:03.984Z,99281.69
2023-03-21T22:26:30.644Z,99278.31
2023-03-21T22:28:57.992Z,99279.28
2023-03-21T22:31:25.955Z,99285.50
2023-03-21T22:33:52.633Z,99285.59
2023-03-21T22:36:20.112Z,99286.56
2023-03-21T22:38:47.807Z,99282.25
2023-03-21T22:41:14.549Z,99270.00
2023-03-21T22:43:41.127Z,99279.72
2023-03-21T22:46:07.635Z,99281.50
2023-03-21T22:48:34.769Z,99280.63
2023-03-21T22:51:01.428Z,99278.84
2023-03-21T22:53:28.463Z,99273.59
2023-03-21T22:55:58.337Z,99267.59
2023-03-21T22:58:24.886Z,99268.31
2023-03-21T23:00:51.887Z,99262.09
2023-03-21T23:03:18.759Z,99257.56
2023-03-21T23:05:45.700Z,99257.47
2023-03-21T23:08:13.024Z,99260.00
2023-03-21T23:10:41.443Z,99252.69
2023-03-21T23:13:08.273Z,99254.38
2023-03-21T23:15:34.795Z,99256.06
2023-03-21T23:18:01.418Z,99245.41
2023-03-21T23:20:28.044Z,99244.59
2023-03-21T23:22:54.766Z,99238.34
2023-03-21T23:25:21.705Z,99239.16
2023-03-21T23:27:48.428Z,99240.97
2023-03-21T23:30:15.260Z,99245.41
2023-03-21T23:32:42.638Z,99241.09
2023-03-21T23:35:10.201Z,99238.44
2023-03-21T23:37:36.986Z,99233.28
2023-03-21T23:40:06.220Z,99237.69
2023-03-21T23:42:34.292Z,99233.38
2023-03-21T23:45:00.986Z,99228.13
2023-03-21T23:47:27.819Z,99225.38
2023-03-21T23:49:54.463Z,99223.59
2023-03-21T23:52:21.447Z,99226.22
2023-03-21T23:54:48.125Z,99229.59
2023-03-21T23:57:14.700Z,99226.13
2023-03-21T23:59:41.191Z,99221.66
